Aripeka, Florida
Current Conditions -  °F | °C
As of 2:53 AM on Friday 24 Oct 2014 (Local Time) from KBKV Reporting Station
Clear Clear  
Wind Chill: 60°   Ceiling: Unl
Heat Index: 60°   Visibility: 10mi
Dew Point: 55°   Wind: 7mph
Humidity: 83%   Direction: 40°NE
Pressure: 29.99"   Gusts: NA
Location:  28.43°N, 82.66°W
Report Text: KBKV 240653Z AUTO 04006KT 10SM CLR 16/13 A2999 RMK AO2 SLP153 T01560128
Loading
Personal Weather Stations






























Interactive Weather Map New forecast layout! Learn more

10-Day Weather Forecast

Advertisements
Track Severe Weather on mobile